sensor_id;sensor_type;location;lat;lon;timestamp;temperature;humidity
66343;DHT22;53144;51.524;5.080;2023-09-19T00:00:34;15.10;89.55
66343;DHT22;53144;51.524;5.080;2023-09-19T00:03:00;15.12;89.29
66343;DHT22;53144;51.524;5.080;2023-09-19T00:05:27;14.99;89.64
66343;DHT22;53144;51.524;5.080;2023-09-19T00:07:55;15.03;89.19
66343;DHT22;53144;51.524;5.080;2023-09-19T00:10:22;15.02;89.30
66343;DHT22;53144;51.524;5.080;2023-09-19T00:12:50;15.02;89.03
66343;DHT22;53144;51.524;5.080;2023-09-19T00:15:17;14.98;89.13
66343;DHT22;53144;51.524;5.080;2023-09-19T00:17:43;14.95;89.06
66343;DHT22;53144;51.524;5.080;2023-09-19T00:20:09;14.92;89.22
66343;DHT22;53144;51.524;5.080;2023-09-19T00:22:41;14.89;89.17
66343;DHT22;53144;51.524;5.080;2023-09-19T00:25:07;14.91;89.38
66343;DHT22;53144;51.524;5.080;2023-09-19T00:27:33;14.87;89.43
66343;DHT22;53144;51.524;5.080;2023-09-19T00:30:00;14.84;89.46
66343;DHT22;53144;51.524;5.080;2023-09-19T00:32:25;14.81;89.37
66343;DHT22;53144;51.524;5.080;2023-09-19T00:34:57;14.72;90.40
66343;DHT22;53144;51.524;5.080;2023-09-19T00:37:23;14.72;89.43
66343;DHT22;53144;51.524;5.080;2023-09-19T00:39:48;14.71;89.55
66343;DHT22;53144;51.524;5.080;2023-09-19T00:42:20;14.61;90.38
66343;DHT22;53144;51.524;5.080;2023-09-19T00:44:46;14.58;90.00
66343;DHT22;53144;51.524;5.080;2023-09-19T00:47:12;14.56;89.80
66343;DHT22;53144;51.524;5.080;2023-09-19T00:49:42;14.50;89.67
66343;DHT22;53144;51.524;5.080;2023-09-19T00:52:08;14.56;89.69
66343;DHT22;53144;51.524;5.080;2023-09-19T00:54:35;14.51;89.41
66343;DHT22;53144;51.524;5.080;2023-09-19T00:57:01;14.51;89.42
66343;DHT22;53144;51.524;5.080;2023-09-19T00:59:27;14.50;89.66
66343;DHT22;53144;51.524;5.080;2023-09-19T01:01:54;14.51;88.70
66343;DHT22;53144;51.524;5.080;2023-09-19T01:04:21;14.51;88.75
66343;DHT22;53144;51.524;5.080;2023-09-19T01:06:47;14.41;89.10
66343;DHT22;53144;51.524;5.080;2023-09-19T01:09:17;14.41;88.83
66343;DHT22;53144;51.524;5.080;2023-09-19T01:11:46;14.29;89.81
66343;DHT22;53144;51.524;5.080;2023-09-19T01:16:46;14.29;88.02
66343;DHT22;53144;51.524;5.080;2023-09-19T01:25:14;14.29;86.91
66343;DHT22;53144;51.524;5.080;2023-09-19T01:30:32;14.23;87.50
66343;DHT22;53144;51.524;5.080;2023-09-19T01:33:01;14.33;85.44
66343;DHT22;53144;51.524;5.080;2023-09-19T01:35:27;14.29;84.94
66343;DHT22;53144;51.524;5.080;2023-09-19T01:37:53;14.20;85.84
66343;DHT22;53144;51.524;5.080;2023-09-19T01:40:20;14.20;84.81
66343;DHT22;53144;51.524;5.080;2023-09-19T01:45:46;14.23;83.86
66343;DHT22;53144;51.524;5.080;2023-09-19T01:48:19;14.24;83.68
66343;DHT22;53144;51.524;5.080;2023-09-19T01:51:04;14.20;83.62
66343;DHT22;53144;51.524;5.080;2023-09-19T01:53:37;14.17;83.83
66343;DHT22;53144;51.524;5.080;2023-09-19T01:56:08;14.16;83.60
66343;DHT22;53144;51.524;5.080;2023-09-19T01:58:42;14.03;86.12
66343;DHT22;53144;51.524;5.080;2023-09-19T02:01:11;14.08;83.92
66343;DHT22;53144;51.524;5.080;2023-09-19T02:03:38;14.06;84.30
66343;DHT22;53144;51.524;5.080;2023-09-19T02:06:04;14.00;84.31
66343;DHT22;53144;51.524;5.080;2023-09-19T02:08:30;14.00;83.48
66343;DHT22;53144;51.524;5.080;2023-09-19T02:10:58;13.98;83.89
66343;DHT22;53144;51.524;5.080;2023-09-19T02:13:25;13.99;83.23
66343;DHT22;53144;51.524;5.080;2023-09-19T02:15:51;13.93;84.23
66343;DHT22;53144;51.524;5.080;2023-09-19T02:18:16;13.96;83.61
66343;DHT22;53144;51.524;5.080;2023-09-19T02:20:42;13.93;83.35
66343;DHT22;53144;51.524;5.080;2023-09-19T02:23:08;13.93;83.48
66343;DHT22;53144;51.524;5.080;2023-09-19T02:25:34;13.90;82.46
66343;DHT22;53144;51.524;5.080;2023-09-19T02:28:01;13.93;82.53
66343;DHT22;53144;51.524;5.080;2023-09-19T02:30:28;13.98;81.84
66343;DHT22;53144;51.524;5.080;2023-09-19T02:32:53;13.98;81.53
66343;DHT22;53144;51.524;5.080;2023-09-19T02:35:19;13.99;81.66
66343;DHT22;53144;51.524;5.080;2023-09-19T02:41:06;13.92;81.86
66343;DHT22;53144;51.524;5.080;2023-09-19T02:43:32;13.96;80.98
66343;DHT22;53144;51.524;5.080;2023-09-19T02:45:58;13.95;82.08
66343;DHT22;53144;51.524;5.080;2023-09-19T02:48:23;13.93;81.43
66343;DHT22;53144;51.524;5.080;2023-09-19T02:50:50;13.95;81.19
66343;DHT22;53144;51.524;5.080;2023-09-19T02:53:16;13.89;81.88
66343;DHT22;53144;51.524;5.080;2023-09-19T02:55:41;13.87;81.57
66343;DHT22;53144;51.524;5.080;2023-09-19T02:58:08;13.86;82.29
66343;DHT22;53144;51.524;5.080;2023-09-19T03:00:33;13.78;82.74
66343;DHT22;53144;51.524;5.080;2023-09-19T03:03:01;13.76;82.33
66343;DHT22;53144;51.524;5.080;2023-09-19T03:05:27;13.73;82.51
66343;DHT22;53144;51.524;5.080;2023-09-19T03:07:56;13.72;82.58
66343;DHT22;53144;51.524;5.080;2023-09-19T03:10:21;13.66;82.69
66343;DHT22;53144;51.524;5.080;2023-09-19T03:12:47;13.65;84.09
66343;DHT22;53144;51.524;5.080;2023-09-19T03:15:14;13.66;83.01
66343;DHT22;53144;51.524;5.080;2023-09-19T03:17:44;13.63;83.35
66343;DHT22;53144;51.524;5.080;2023-09-19T03:20:10;13.66;82.76
66343;DHT22;53144;51.524;5.080;2023-09-19T03:22:38;13.61;82.85
66343;DHT22;53144;51.524;5.080;2023-09-19T03:25:04;13.69;83.45
66343;DHT22;53144;51.524;5.080;2023-09-19T03:27:34;13.68;83.34
66343;DHT22;53144;51.524;5.080;2023-09-19T03:30:00;13.62;83.91
66343;DHT22;53144;51.524;5.080;2023-09-19T03:32:25;13.58;84.23
66343;DHT22;53144;51.524;5.080;2023-09-19T03:34:50;13.54;84.59
66343;DHT22;53144;51.524;5.080;2023-09-19T03:37:16;13.65;83.80
66343;DHT22;53144;51.524;5.080;2023-09-19T03:39:41;13.63;84.37
66343;DHT22;53144;51.524;5.080;2023-09-19T03:42:07;13.68;84.59
66343;DHT22;53144;51.524;5.080;2023-09-19T03:44:32;13.62;84.81
66343;DHT22;53144;51.524;5.080;2023-09-19T03:46:58;13.63;84.94
66343;DHT22;53144;51.524;5.080;2023-09-19T03:49:23;13.63;85.18
66343;DHT22;53144;51.524;5.080;2023-09-19T03:51:49;13.65;85.86
66343;DHT22;53144;51.524;5.080;2023-09-19T03:54:14;13.69;85.36
66343;DHT22;53144;51.524;5.080;2023-09-19T03:56:39;13.71;85.50
66343;DHT22;53144;51.524;5.080;2023-09-19T03:59:05;13.72;85.89
66343;DHT22;53144;51.524;5.080;2023-09-19T04:01:30;13.80;85.19
66343;DHT22;53144;51.524;5.080;2023-09-19T04:03:58;13.76;85.84
66343;DHT22;53144;51.524;5.080;2023-09-19T04:06:24;13.76;86.05
66343;DHT22;53144;51.524;5.080;2023-09-19T04:08:49;13.86;85.32
66343;DHT22;53144;51.524;5.080;2023-09-19T04:11:15;13.89;85.56
66343;DHT22;53144;51.524;5.080;2023-09-19T04:13:40;13.87;86.09
66343;DHT22;53144;51.524;5.080;2023-09-19T04:16:06;13.87;85.94
66343;DHT22;53144;51.524;5.080;2023-09-19T04:18:34;13.89;85.74
66343;DHT22;53144;51.524;5.080;2023-09-19T04:21:03;14.02;85.18
66343;DHT22;53144;51.524;5.080;2023-09-19T04:23:30;14.05;85.52
66343;DHT22;53144;51.524;5.080;2023-09-19T04:25:56;14.12;84.88
66343;DHT22;53144;51.524;5.080;2023-09-19T04:28:22;14.17;85.37
66343;DHT22;53144;51.524;5.080;2023-09-19T04:30:48;14.16;85.23
66343;DHT22;53144;51.524;5.080;2023-09-19T04:33:13;14.17;85.35
66343;DHT22;53144;51.524;5.080;2023-09-19T04:35:40;14.17;85.09
66343;DHT22;53144;51.524;5.080;2023-09-19T04:38:08;14.20;85.22
66343;DHT22;53144;51.524;5.080;2023-09-19T04:40:33;14.20;85.56
66343;DHT22;53144;51.524;5.080;2023-09-19T04:42:59;14.10;86.42
66343;DHT22;53144;51.524;5.080;2023-09-19T04:45:28;14.06;87.00
66343;DHT22;53144;51.524;5.080;2023-09-19T04:47:54;14.06;86.40
66343;DHT22;53144;51.524;5.080;2023-09-19T04:50:20;13.99;87.65
66343;DHT22;53144;51.524;5.080;2023-09-19T04:52:49;14.08;86.27
66343;DHT22;53144;51.524;5.080;2023-09-19T04:55:16;14.06;86.63
66343;DHT22;53144;51.524;5.080;2023-09-19T04:57:46;14.16;86.15
66343;DHT22;53144;51.524;5.080;2023-09-19T05:00:22;14.12;86.57
66343;DHT22;53144;51.524;5.080;2023-09-19T05:02:56;14.10;86.63
66343;DHT22;53144;51.524;5.080;2023-09-19T05:05:22;14.16;86.43
66343;DHT22;53144;51.524;5.080;2023-09-19T05:07:49;14.03;87.80
66343;DHT22;53144;51.524;5.080;2023-09-19T05:10:15;14.14;86.98
66343;DHT22;53144;51.524;5.080;2023-09-19T05:12:41;14.12;87.24
66343;DHT22;53144;51.524;5.080;2023-09-19T05:15:07;14.12;87.33
66343;DHT22;53144;51.524;5.080;2023-09-19T05:17:36;14.17;87.39
66343;DHT22;53144;51.524;5.080;2023-09-19T05:20:02;14.20;87.45
66343;DHT22;53144;51.524;5.080;2023-09-19T05:22:41;14.14;87.62
66343;DHT22;53144;51.524;5.080;2023-09-19T05:25:10;14.10;87.94
66343;DHT22;53144;51.524;5.080;2023-09-19T05:27:36;14.10;87.87
66343;DHT22;53144;51.524;5.080;2023-09-19T05:30:02;14.10;88.11
66343;DHT22;53144;51.524;5.080;2023-09-19T05:32:27;14.10;88.50
66343;DHT22;53144;51.524;5.080;2023-09-19T05:34:53;14.06;88.55
66343;DHT22;53144;51.524;5.080;2023-09-19T05:37:21;14.02;88.63
66343;DHT22;53144;51.524;5.080;2023-09-19T05:39:47;14.03;88.85
66343;DHT22;53144;51.524;5.080;2023-09-19T05:42:12;14.05;88.77
66343;DHT22;53144;51.524;5.080;2023-09-19T05:44:38;13.95;89.22
66343;DHT22;53144;51.524;5.080;2023-09-19T05:47:04;13.98;89.60
66343;DHT22;53144;51.524;5.080;2023-09-19T05:49:29;13.96;89.35
66343;DHT22;53144;51.524;5.080;2023-09-19T05:51:54;13.95;89.88
66343;DHT22;53144;51.524;5.080;2023-09-19T05:54:22;13.87;90.03
66343;DHT22;53144;51.524;5.080;2023-09-19T05:56:47;13.93;89.96
66343;DHT22;53144;51.524;5.080;2023-09-19T05:59:14;13.89;90.04
66343;DHT22;53144;51.524;5.080;2023-09-19T06:01:44;13.95;90.05
66343;DHT22;53144;51.524;5.080;2023-09-19T06:04:09;13.90;90.12
66343;DHT22;53144;51.524;5.080;2023-09-19T06:06:35;13.92;90.33
66343;DHT22;53144;51.524;5.080;2023-09-19T06:09:04;13.96;90.03
66343;DHT22;53144;51.524;5.080;2023-09-19T06:11:31;13.98;89.73
66343;DHT22;53144;51.524;5.080;2023-09-19T06:13:59;14.00;89.79
66343;DHT22;53144;51.524;5.080;2023-09-19T06:16:25;13.96;89.83
66343;DHT22;53144;51.524;5.080;2023-09-19T06:18:51;14.00;90.11
66343;DHT22;53144;51.524;5.080;2023-09-19T06:21:18;13.99;90.08
66343;DHT22;53144;51.524;5.080;2023-09-19T06:23:43;14.03;90.09
66343;DHT22;53144;51.524;5.080;2023-09-19T06:26:08;14.03;89.68
66343;DHT22;53144;51.524;5.080;2023-09-19T06:28:34;14.03;89.85
66343;DHT22;53144;51.524;5.080;2023-09-19T06:31:02;14.06;90.10
66343;DHT22;53144;51.524;5.080;2023-09-19T06:33:27;14.06;89.81
66343;DHT22;53144;51.524;5.080;2023-09-19T06:35:53;14.10;89.85
66343;DHT22;53144;51.524;5.080;2023-09-19T06:38:24;14.13;89.70
66343;DHT22;53144;51.524;5.080;2023-09-19T06:40:49;14.12;90.08
66343;DHT22;53144;51.524;5.080;2023-09-19T06:43:15;14.14;89.81
66343;DHT22;53144;51.524;5.080;2023-09-19T06:45:40;14.16;90.26
66343;DHT22;53144;51.524;5.080;2023-09-19T06:48:06;14.20;89.71
66343;DHT22;53144;51.524;5.080;2023-09-19T06:50:32;14.27;89.82
66343;DHT22;53144;51.524;5.080;2023-09-19T06:52:59;14.29;89.31
66343;DHT22;53144;51.524;5.080;2023-09-19T06:55:26;14.36;89.50
66343;DHT22;53144;51.524;5.080;2023-09-19T06:57:56;14.37;89.80
66343;DHT22;53144;51.524;5.080;2023-09-19T07:00:22;14.42;89.41
66343;DHT22;53144;51.524;5.080;2023-09-19T07:03:02;14.42;89.00
66343;DHT22;53144;51.524;5.080;2023-09-19T07:05:33;14.44;89.84
66343;DHT22;53144;51.524;5.080;2023-09-19T07:07:59;14.42;89.30
66343;DHT22;53144;51.524;5.080;2023-09-19T07:10:26;14.44;89.49
66343;DHT22;53144;51.524;5.080;2023-09-19T07:12:56;14.48;89.48
66343;DHT22;53144;51.524;5.080;2023-09-19T07:15:23;14.56;89.41
66343;DHT22;53144;51.524;5.080;2023-09-19T07:17:53;14.64;89.03
66343;DHT22;53144;51.524;5.080;2023-09-19T07:20:20;14.72;89.43
66343;DHT22;53144;51.524;5.080;2023-09-19T07:22:45;14.82;88.65
66343;DHT22;53144;51.524;5.080;2023-09-19T07:25:13;14.95;88.36
66343;DHT22;53144;51.524;5.080;2023-09-19T07:27:40;14.99;88.65
66343;DHT22;53144;51.524;5.080;2023-09-19T07:30:06;14.95;87.46
66343;DHT22;53144;51.524;5.080;2023-09-19T07:32:33;14.93;87.87
66343;DHT22;53144;51.524;5.080;2023-09-19T07:35:00;15.00;87.98
66343;DHT22;53144;51.524;5.080;2023-09-19T07:37:25;15.05;87.84
66343;DHT22;53144;51.524;5.080;2023-09-19T07:39:51;15.08;88.06
66343;DHT22;53144;51.524;5.080;2023-09-19T07:42:16;15.13;88.24
66343;DHT22;53144;51.524;5.080;2023-09-19T07:44:43;15.22;87.21
66343;DHT22;53144;51.524;5.080;2023-09-19T07:47:13;15.35;86.85
66343;DHT22;53144;51.524;5.080;2023-09-19T07:49:39;15.35;87.23
66343;DHT22;53144;51.524;5.080;2023-09-19T07:52:04;15.42;87.18
66343;DHT22;53144;51.524;5.080;2023-09-19T07:54:30;15.49;86.84
66343;DHT22;53144;51.524;5.080;2023-09-19T07:57:03;15.51;86.79
66343;DHT22;53144;51.524;5.080;2023-09-19T07:59:29;15.54;87.66
66343;DHT22;53144;51.524;5.080;2023-09-19T08:01:55;15.66;85.88
66343;DHT22;53144;51.524;5.080;2023-09-19T08:04:20;15.61;86.11
66343;DHT22;53144;51.524;5.080;2023-09-19T08:06:46;15.61;86.32
66343;DHT22;53144;51.524;5.080;2023-09-19T08:09:11;15.64;85.72
66343;DHT22;53144;51.524;5.080;2023-09-19T08:11:39;15.68;85.99
66343;DHT22;53144;51.524;5.080;2023-09-19T08:14:04;15.71;86.06
66343;DHT22;53144;51.524;5.080;2023-09-19T08:16:33;15.80;85.90
66343;DHT22;53144;51.524;5.080;2023-09-19T08:18:59;15.84;85.54
66343;DHT22;53144;51.524;5.080;2023-09-19T08:21:24;15.87;85.57
66343;DHT22;53144;51.524;5.080;2023-09-19T08:23:51;15.95;85.29
66343;DHT22;53144;51.524;5.080;2023-09-19T08:26:16;16.02;85.32
66343;DHT22;53144;51.524;5.080;2023-09-19T08:28:42;16.01;85.08
66343;DHT22;53144;51.524;5.080;2023-09-19T08:31:08;16.05;84.55
66343;DHT22;53144;51.524;5.080;2023-09-19T08:33:35;16.04;85.20
66343;DHT22;53144;51.524;5.080;2023-09-19T08:36:04;16.01;86.30
66343;DHT22;53144;51.524;5.080;2023-09-19T08:38:35;16.12;84.98
66343;DHT22;53144;51.524;5.080;2023-09-19T08:41:05;16.19;85.32
66343;DHT22;53144;51.524;5.080;2023-09-19T08:43:31;16.25;85.54
66343;DHT22;53144;51.524;5.080;2023-09-19T08:46:08;16.33;84.50
66343;DHT22;53144;51.524;5.080;2023-09-19T08:48:35;16.45;84.90
66343;DHT22;53144;51.524;5.080;2023-09-19T08:51:07;16.48;84.78
66343;DHT22;53144;51.524;5.080;2023-09-19T08:53:42;16.36;83.69
66343;DHT22;53144;51.524;5.080;2023-09-19T08:56:17;16.49;84.20
66343;DHT22;53144;51.524;5.080;2023-09-19T08:59:04;16.80;83.34
66343;DHT22;53144;51.524;5.080;2023-09-19T09:01:31;16.97;84.22
66343;DHT22;53144;51.524;5.080;2023-09-19T09:03:57;17.13;82.53
66343;DHT22;53144;51.524;5.080;2023-09-19T09:06:24;17.30;81.62
66343;DHT22;53144;51.524;5.080;2023-09-19T09:08:51;17.52;81.68
66343;DHT22;53144;51.524;5.080;2023-09-19T09:11:18;17.63;80.74
66343;DHT22;53144;51.524;5.080;2023-09-19T09:13:44;17.63;81.54
66343;DHT22;53144;51.524;5.080;2023-09-19T09:16:10;17.68;81.23
66343;DHT22;53144;51.524;5.080;2023-09-19T09:18:36;17.87;80.41
66343;DHT22;53144;51.524;5.080;2023-09-19T09:21:02;17.72;79.54
66343;DHT22;53144;51.524;5.080;2023-09-19T09:23:30;17.44;79.55
66343;DHT22;53144;51.524;5.080;2023-09-19T09:25:57;17.69;80.82
66343;DHT22;53144;51.524;5.080;2023-09-19T09:28:26;17.61;80.14
66343;DHT22;53144;51.524;5.080;2023-09-19T09:30:52;17.48;78.95
66343;DHT22;53144;51.524;5.080;2023-09-19T09:33:18;17.39;79.83
66343;DHT22;53144;51.524;5.080;2023-09-19T09:38:13;17.68;79.94
66343;DHT22;53144;51.524;5.080;2023-09-19T09:40:50;17.78;78.93
66343;DHT22;53144;51.524;5.080;2023-09-19T09:43:25;17.82;79.27
66343;DHT22;53144;51.524;5.080;2023-09-19T09:46:09;17.94;79.20
66343;DHT22;53144;51.524;5.080;2023-09-19T09:49:05;18.00;78.62
66343;DHT22;53144;51.524;5.080;2023-09-19T09:54:31;17.99;78.44
66343;DHT22;53144;51.524;5.080;2023-09-19T09:57:07;18.02;79.22
66343;DHT22;53144;51.524;5.080;2023-09-19T09:59:46;18.03;78.42
66343;DHT22;53144;51.524;5.080;2023-09-19T10:02:13;18.18;77.64
66343;DHT22;53144;51.524;5.080;2023-09-19T10:04:39;18.29;77.29
66343;DHT22;53144;51.524;5.080;2023-09-19T10:10:00;18.57;76.93
66343;DHT22;53144;51.524;5.080;2023-09-19T10:12:38;18.60;77.49
66343;DHT22;53144;51.524;5.080;2023-09-19T10:15:05;18.44;76.06
66343;DHT22;53144;51.524;5.080;2023-09-19T10:17:34;18.67;75.75
66343;DHT22;53144;51.524;5.080;2023-09-19T10:20:01;19.00;74.90
66343;DHT22;53144;51.524;5.080;2023-09-19T10:22:35;19.24;75.53
66343;DHT22;53144;51.524;5.080;2023-09-19T10:25:04;19.53;73.33
66343;DHT22;53144;51.524;5.080;2023-09-19T10:27:32;20.47;71.10
66343;DHT22;53144;51.524;5.080;2023-09-19T10:30:05;19.91;70.44
66343;DHT22;53144;51.524;5.080;2023-09-19T10:32:34;19.73;71.41
66343;DHT22;53144;51.524;5.080;2023-09-19T10:35:01;19.74;71.19
66343;DHT22;53144;51.524;5.080;2023-09-19T10:37:31;19.91;69.91
66343;DHT22;53144;51.524;5.080;2023-09-19T10:39:58;20.53;68.93
66343;DHT22;53144;51.524;5.080;2023-09-19T10:42:25;20.90;69.37
66343;DHT22;53144;51.524;5.080;2023-09-19T10:44:57;20.90;67.24
66343;DHT22;53144;51.524;5.080;2023-09-19T10:47:25;20.45;68.36
66343;DHT22;53144;51.524;5.080;2023-09-19T10:49:50;20.87;66.79
66343;DHT22;53144;51.524;5.080;2023-09-19T10:52:20;20.98;65.64
66343;DHT22;53144;51.524;5.080;2023-09-19T10:54:50;20.62;66.27
66343;DHT22;53144;51.524;5.080;2023-09-19T10:57:24;20.62;65.85
66343;DHT22;53144;51.524;5.080;2023-09-19T11:00:08;20.84;67.50
66343;DHT22;53144;51.524;5.080;2023-09-19T11:05:39;22.07;63.62
66343;DHT22;53144;51.524;5.080;2023-09-19T11:08:06;21.59;63.10
66343;DHT22;53144;51.524;5.080;2023-09-19T11:11:01;21.59;62.11
66343;DHT22;53144;51.524;5.080;2023-09-19T11:13:29;21.92;61.45
66343;DHT22;53144;51.524;5.080;2023-09-19T11:16:02;22.00;62.39
66343;DHT22;53144;51.524;5.080;2023-09-19T11:26:45;21.48;62.84
66343;DHT22;53144;51.524;5.080;2023-09-19T11:31:51;21.65;64.37
66343;DHT22;53144;51.524;5.080;2023-09-19T11:37:01;22.00;62.67
66343;DHT22;53144;51.524;5.080;2023-09-19T11:39:29;21.52;65.17
66343;DHT22;53144;51.524;5.080;2023-09-19T11:41:55;21.23;66.00
66343;DHT22;53144;51.524;5.080;2023-09-19T11:49:31;21.72;64.57
66343;DHT22;53144;51.524;5.080;2023-09-19T11:51:58;22.00;64.32
66343;DHT22;53144;51.524;5.080;2023-09-19T11:54:30;21.51;65.77
66343;DHT22;53144;51.524;5.080;2023-09-19T11:56:57;21.39;66.48
66343;DHT22;53144;51.524;5.080;2023-09-19T11:59:25;21.37;65.17
66343;DHT22;53144;51.524;5.080;2023-09-19T12:02:01;21.05;66.00
66343;DHT22;53144;51.524;5.080;2023-09-19T12:04:41;21.37;65.49
66343;DHT22;53144;51.524;5.080;2023-09-19T12:07:12;21.48;65.33
66343;DHT22;53144;51.524;5.080;2023-09-19T12:10:02;21.42;65.86
66343;DHT22;53144;51.524;5.080;2023-09-19T12:12:28;20.72;67.53
66343;DHT22;53144;51.524;5.080;2023-09-19T12:14:55;20.05;68.32
66343;DHT22;53144;51.524;5.080;2023-09-19T12:17:37;19.66;70.32
66343;DHT22;53144;51.524;5.080;2023-09-19T12:20:04;19.43;70.37
66343;DHT22;53144;51.524;5.080;2023-09-19T12:22:45;19.68;70.47
66343;DHT22;53144;51.524;5.080;2023-09-19T12:25:12;19.74;69.72
66343;DHT22;53144;51.524;5.080;2023-09-19T12:27:47;19.87;69.67
66343;DHT22;53144;51.524;5.080;2023-09-19T12:30:14;20.25;69.69
66343;DHT22;53144;51.524;5.080;2023-09-19T12:32:40;20.36;69.10
66343;DHT22;53144;51.524;5.080;2023-09-19T12:35:07;20.11;69.89
66343;DHT22;53144;51.524;5.080;2023-09-19T12:37:37;19.92;71.55
66343;DHT22;53144;51.524;5.080;2023-09-19T12:40:11;19.87;69.76
66343;DHT22;53144;51.524;5.080;2023-09-19T12:42:43;19.91;69.80
66343;DHT22;53144;51.524;5.080;2023-09-19T12:45:13;19.75;70.50
66343;DHT22;53144;51.524;5.080;2023-09-19T12:47:40;19.84;71.75
66343;DHT22;53144;51.524;5.080;2023-09-19T12:50:26;19.82;70.37
66343;DHT22;53144;51.524;5.080;2023-09-19T12:52:55;19.74;70.22
66343;DHT22;53144;51.524;5.080;2023-09-19T12:55:29;19.70;70.74
66343;DHT22;53144;51.524;5.080;2023-09-19T13:00:40;19.63;71.28
66343;DHT22;53144;51.524;5.080;2023-09-19T13:03:36;19.75;71.33
66343;DHT22;53144;51.524;5.080;2023-09-19T13:06:04;19.67;71.22
66343;DHT22;53144;51.524;5.080;2023-09-19T13:08:30;19.70;71.10
66343;DHT22;53144;51.524;5.080;2023-09-19T13:11:05;19.57;72.07
66343;DHT22;53144;51.524;5.080;2023-09-19T13:13:32;19.54;72.36
66343;DHT22;53144;51.524;5.080;2023-09-19T13:16:00;19.54;71.54
66343;DHT22;53144;51.524;5.080;2023-09-19T13:18:27;19.61;71.85
66343;DHT22;53144;51.524;5.080;2023-09-19T13:21:09;19.73;71.10
66343;DHT22;53144;51.524;5.080;2023-09-19T13:23:43;19.81;70.64
66343;DHT22;53144;51.524;5.080;2023-09-19T13:26:10;19.75;71.91
66343;DHT22;53144;51.524;5.080;2023-09-19T13:28:37;19.60;71.99
66343;DHT22;53144;51.524;5.080;2023-09-19T13:31:02;19.58;71.47
66343;DHT22;53144;51.524;5.080;2023-09-19T13:33:28;19.63;71.37
66343;DHT22;53144;51.524;5.080;2023-09-19T13:35:53;19.64;72.31
66343;DHT22;53144;51.524;5.080;2023-09-19T13:38:19;19.77;72.07
66343;DHT22;53144;51.524;5.080;2023-09-19T13:40:47;19.75;71.08
66343;DHT22;53144;51.524;5.080;2023-09-19T13:43:13;19.66;71.23
66343;DHT22;53144;51.524;5.080;2023-09-19T13:45:39;19.49;72.32
66343;DHT22;53144;51.524;5.080;2023-09-19T13:48:08;19.43;73.47
66343;DHT22;53144;51.524;5.080;2023-09-19T13:50:34;19.37;72.52
66343;DHT22;53144;51.524;5.080;2023-09-19T13:53:01;19.41;73.24
66343;DHT22;53144;51.524;5.080;2023-09-19T13:55:27;19.46;72.86
66343;DHT22;53144;51.524;5.080;2023-09-19T13:57:56;19.56;72.88
66343;DHT22;53144;51.524;5.080;2023-09-19T14:00:23;19.70;73.06
66343;DHT22;53144;51.524;5.080;2023-09-19T14:02:48;19.68;72.39
66343;DHT22;53144;51.524;5.080;2023-09-19T14:05:17;19.71;72.52
66343;DHT22;53144;51.524;5.080;2023-09-19T14:07:44;19.67;72.01
66343;DHT22;53144;51.524;5.080;2023-09-19T14:10:11;19.63;73.60
66343;DHT22;53144;51.524;5.080;2023-09-19T14:12:56;19.61;73.39
66343;DHT22;53144;51.524;5.080;2023-09-19T14:15:24;19.56;73.90
66343;DHT22;53144;51.524;5.080;2023-09-19T14:17:58;19.58;73.38
66343;DHT22;53144;51.524;5.080;2023-09-19T14:20:26;19.63;72.40
66343;DHT22;53144;51.524;5.080;2023-09-19T14:22:53;19.73;72.79
66343;DHT22;53144;51.524;5.080;2023-09-19T14:25:19;19.75;72.48
66343;DHT22;53144;51.524;5.080;2023-09-19T14:27:44;19.78;71.08
66343;DHT22;53144;51.524;5.080;2023-09-19T14:30:13;19.85;71.49
66343;DHT22;53144;51.524;5.080;2023-09-19T14:32:39;19.82;72.16
66343;DHT22;53144;51.524;5.080;2023-09-19T14:35:06;19.81;71.64
66343;DHT22;53144;51.524;5.080;2023-09-19T14:37:32;19.73;72.08
66343;DHT22;53144;51.524;5.080;2023-09-19T14:39:58;19.58;71.92
66343;DHT22;53144;51.524;5.080;2023-09-19T14:42:23;19.54;73.25
66343;DHT22;53144;51.524;5.080;2023-09-19T14:44:52;19.57;71.60
66343;DHT22;53144;51.524;5.080;2023-09-19T14:47:18;19.66;72.15
66343;DHT22;53144;51.524;5.080;2023-09-19T14:49:44;19.68;72.83
66343;DHT22;53144;51.524;5.080;2023-09-19T14:52:11;19.71;71.72
66343;DHT22;53144;51.524;5.080;2023-09-19T14:54:41;19.74;73.30
66343;DHT22;53144;51.524;5.080;2023-09-19T14:57:06;19.67;73.35
66343;DHT22;53144;51.524;5.080;2023-09-19T14:59:33;19.61;72.27
66343;DHT22;53144;51.524;5.080;2023-09-19T15:02:05;19.56;72.49
66343;DHT22;53144;51.524;5.080;2023-09-19T15:04:30;19.49;73.25
66343;DHT22;53144;51.524;5.080;2023-09-19T15:06:56;19.47;73.29
66343;DHT22;53144;51.524;5.080;2023-09-19T15:09:25;19.57;73.17
66343;DHT22;53144;51.524;5.080;2023-09-19T15:11:54;19.56;73.76
66343;DHT22;53144;51.524;5.080;2023-09-19T15:14:20;19.53;73.11
66343;DHT22;53144;51.524;5.080;2023-09-19T15:16:46;19.53;73.01
66343;DHT22;53144;51.524;5.080;2023-09-19T15:19:12;19.47;73.43
66343;DHT22;53144;51.524;5.080;2023-09-19T15:21:37;19.47;73.68
66343;DHT22;53144;51.524;5.080;2023-09-19T15:24:03;19.40;74.29
66343;DHT22;53144;51.524;5.080;2023-09-19T15:26:29;19.40;73.91
66343;DHT22;53144;51.524;5.080;2023-09-19T15:28:55;19.39;74.35
66343;DHT22;53144;51.524;5.080;2023-09-19T15:31:20;19.30;74.19
66343;DHT22;53144;51.524;5.080;2023-09-19T15:33:46;19.33;74.26
66343;DHT22;53144;51.524;5.080;2023-09-19T15:36:13;19.31;74.56
66343;DHT22;53144;51.524;5.080;2023-09-19T15:41:25;19.31;73.82
66343;DHT22;53144;51.524;5.080;2023-09-19T15:43:52;19.16;74.83
66343;DHT22;53144;51.524;5.080;2023-09-19T15:46:19;19.19;74.21
66343;DHT22;53144;51.524;5.080;2023-09-19T15:48:44;19.24;74.05
66343;DHT22;53144;51.524;5.080;2023-09-19T15:51:11;19.24;74.06
66343;DHT22;53144;51.524;5.080;2023-09-19T15:53:48;19.27;74.04
66343;DHT22;53144;51.524;5.080;2023-09-19T15:56:17;19.20;73.89
66343;DHT22;53144;51.524;5.080;2023-09-19T15:58:46;19.23;74.08
66343;DHT22;53144;51.524;5.080;2023-09-19T16:01:11;19.20;74.64
66343;DHT22;53144;51.524;5.080;2023-09-19T16:03:38;19.16;75.40
66343;DHT22;53144;51.524;5.080;2023-09-19T16:06:10;19.18;74.83
66343;DHT22;53144;51.524;5.080;2023-09-19T16:08:40;19.18;74.37
66343;DHT22;53144;51.524;5.080;2023-09-19T16:11:06;19.13;74.69
66343;DHT22;53144;51.524;5.080;2023-09-19T16:13:31;19.09;75.03
66343;DHT22;53144;51.524;5.080;2023-09-19T16:15:57;19.10;74.70
66343;DHT22;53144;51.524;5.080;2023-09-19T16:18:23;19.06;75.03
66343;DHT22;53144;51.524;5.080;2023-09-19T16:20:48;19.06;74.72
66343;DHT22;53144;51.524;5.080;2023-09-19T16:23:15;19.08;75.29
66343;DHT22;53144;51.524;5.080;2023-09-19T16:25:41;18.96;76.07
66343;DHT22;53144;51.524;5.080;2023-09-19T16:28:06;18.96;75.64